Huvudsida
METAR-TAF:

METAR-TAF

Flygplatser :

Korfus internationella flygplats

Korfu, Grekland

latitud: 39-37N, longitud: 019-55E, höjd: 2 m

Aktuellt väderrapport

Denna rapport gjordes för 43 minuter sedan, klockan 02:50 UTC
Vind 2 kt från väst/sydväst
Temperatur 21°C
Fuktighet 94%
Tryck 1011 hPa
Sikt 10 km eller mer
Få moln på en höjd av 2000 ft

METAR: LGKR 200250Z 24002KT 9999 FEW020 21/20 Q1011 NOSIG

Tid: 06:33 (03:33 UTC)

Väderprognos

Denna rapport gjordes för 4 timmar och 33 minuter sedan, klockan 23:00 UTC
Prognos gäller från 20 kl. 00 UTC till 20 kl. 24 UTC
Vind 5 kt varierande vindriktning
Sikt 10 km eller mer
Få moln på en höjd av 2500 ft
Blir
från 20 kl. 10 UTC till 20 kl. 12 UTC
Vind 10 kt från väst

TAF: LGKR 192300Z 2000/2024 VRB05KT 9999 FEW025 BECMG 2010/2012 28010KT

Aktuella väderrapporter och prognoser från 4000 flygplatser (METAR- och TAF-rapporter).

De tillgängliga stationerna syns som gula och röda prickar på kartan.

För musen över prickarna för att se namnen på stationerna.

Klicka sedan för att få väderrapporter och prognoser.

För att ändra kartan: Klicka på de gröna knapparna med ett svart kors på för att zooma in; den gröna knappen med ett streck på för att zooma ut; eller på de gröna pilarna för angränsande kartor.


METAR-TAF: